• Join FlightAware (Why Join?)
  • Login
  • US Flag 
05:43AM EDT


 

Airport Tracker/Info


-or-


 

Live Flight TrackerFlight Track Log ✈ GLA34B ✈ 2013年 04月 30日 ✈ KBFF - KDEN

Flight Track Log - Related Links

Times and Time Zones

All times are in EDT time to prevent confusion due to time zone crossing. See the GLA34B flight status page for this flight to view local times or setup timezone preferences in your user account.

Time Position Orientation Groundspeed Altitude Reporting Facility
EDT Latitude Longitude Course Direction KTS MPH feet Rate Location/Type
01:40PM 41.8317 -103.5317 153° Southeast 163 188 8,400  Level Denver Center
01:41PM 41.7750 -103.5039 160° South 181 208 10,700 2,160 Climbing Denver Center
01:42PM 41.4654 -103.6000 180° South  Level FlightAware Approximate
01:42PM 41.7269 -103.4944 172° South 182 209 12,900  Level Denver Center
01:43PM 41.3983 -103.6000 180° South  Level FlightAware Approximate
01:43PM 41.6706 -103.4969 182° South 179 206 14,800  Level Denver Center
01:44PM 41.3314 -103.6016 184° South  Level FlightAware Approximate
01:44PM 41.6211 -103.5031 185° South 182 209 16,000  Level Denver Center
01:45PM 41.5589 -103.5175 190° South 197 227 16,000  Level Denver Center
01:46PM 41.4994 -103.5347 192° South 220 253 16,000  Level Denver Center
01:47PM 41.4183 -103.5469 186° South 227 261 16,100  Climbing Denver Center
01:48PM 41.3558 -103.5494 182° South 233 268 16,000 -60 Descending Denver Center
01:49PM 41.2844 -103.5497 180° South 231 266 16,000  Level Denver Center
01:50PM 41.2231 -103.5531 182° South 231 266 16,000 -60 Level Denver Center
01:51PM 41.1544 -103.5589 184° South 223 257 15,900  Descending Denver Center
01:52PM 41.0933 -103.5664 185° South 227 261 16,000  Climbing Denver Center
01:54PM 41.0333 -103.5725 184° South 227 261 16,000  Level Denver Center
01:55PM 40.9539 -103.5803 184° South 225 259 16,000  Level Denver Center
01:56PM 40.8894 -103.6039 195° South 223 257 16,000 -540 Level Denver Center
01:57PM 40.8322 -103.6467 209° Southwest 215 247 14,800 -1,260 Descending Denver Center
01:58PM 40.7753 -103.6936 212° Southwest 215 247 13,400 -900 Descending Denver Center
01:59PM 40.7253 -103.7297 209° Southwest 215 247 13,000 -240 Descending Denver Center
02:00PM 40.6711 -103.7731 211° Southwest 210 242 13,000  Level Denver Center
02:01PM 40.6258 -103.8089 211° Southwest 205 236 13,100  Climbing Denver Center
02:02PM 40.5711 -103.8506 210° Southwest 204 235 13,100 -60 Level Denver Center
02:03PM 40.5250 -103.8861 210° Southwest 203 234 13,000  Descending Denver Center
02:04PM 40.4700 -103.9283 210° Southwest 203 234 13,100  Climbing Denver Center
02:05PM 40.4231 -103.9644 210° Southwest 204 235 13,100 -60 Level Denver Center
02:06PM 40.3714 -104.0092 213° Southwest 206 237 13,000 -60 Descending Denver Center
02:07PM 40.3289 -104.0436 212° Southwest 211 243 13,000  Level Denver Center
02:08PM 40.2731 -104.0947 215° Southwest 200 230 13,100  Climbing Denver Center
02:09PM 40.2372 -104.1514 230° Southwest 203 234 13,000  Descending Denver Center
02:10PM 40.2064 -104.1992 230° Southwest 204 235 13,100  Climbing Denver Center
02:11PM 40.1617 -104.2683 230° Southwest 204 235 13,100 -60 Level Denver Center
02:13PM 40.1261 -104.3278 232° Southwest 206 237 13,000  Descending Denver Center
02:14PM 40.0833 -104.3850 226° Southwest 206 237 13,100  Climbing Denver Center
02:14PM 40.0500 -104.4167 216° Southwest 206 237 13,000 -240 Descending Denver TRACON
02:15PM 40.0167 -104.4833 237° Southwest 198 228 12,700 -660 Descending Denver TRACON
02:16PM 39.9833 -104.5333 229° Southwest 204 235 11,700 -840 Descending Denver TRACON
02:17PM 39.9833 -104.6000 270° West 206 237 11,100 -480 Descending Denver TRACON
02:18PM 39.9800 -104.6267 261° West 203 234 11,100  Level Denver Center
02:19PM 39.9719 -104.7067 263° West 206 237 11,100 -540 Level Denver Center
02:20PM 39.9656 -104.7794 263° West 205 236 10,000 -1,440 Descending Denver Center
02:21PM 39.9386 -104.8847 252° West 225 259 7,600 -1,320 Descending Denver Center
02:22PM 39.8775 -104.8786 176° South 214 246 7,100 -300 Descending Denver Center
02:23PM 39.8419 -104.8319 135° Southeast 198 228 7,000 -540 Descending Denver Center
02:24PM 39.8411 -104.7728 91° East 156 180 6,100 -780 Descending Denver Center
02:25PM 39.8406 -104.7247 91° East 139 160 5,400 -720 Descending Denver Center
02:27PM 39.8500 -104.6667 96° East  Level FlightAware Approximate
02:34PM 39.8617 -104.6732 96° East  Level Estimated